• Join FlightAware (Why Join?)
  • Login
  • US Flag 
10:38PM EST


 

Airport Tracker/Info


-or-


 

Live Flight TrackerFlight Track Log ✈ FDX1347 ✈ 03-Jul-2013 ✈ KALB - KMEM

Flight Track Log - Related Links

Times and Time Zones

All times are in EDT time to prevent confusion due to time zone crossing. See the FDX1347 flight status page for this flight to view local times or setup timezone preferences in your user account.

Time Position Orientation Groundspeed Altitude Reporting Facility
EDT Latitude Longitude Course Direction KTS MPH feet Rate Location/Type
09:48PM 42.7297 -73.8081 244° Southwest 153 176 1,400  Level Boston Center
09:49PM 42.7147 -73.8500 244° Southwest 187 215 3,200 2,520 Climbing Boston Center
09:55PM 42.7230 -74.5640 244° Southwest 395 455 19,000 2,580 Climbing FlightAware
09:56PM 42.7220 -74.6620 269° West 403 464 20,500 2,040 Climbing FlightAware
09:57PM 42.7070 -74.7750 260° West 413 475 21,900 1,980 Climbing FlightAware
09:57PM 42.6830 -74.8720 251° West 419 482 23,300 1,920 Climbing FlightAware
09:58PM 42.6590 -74.9760 253° West 427 491 24,500 1,800 Climbing FlightAware
09:58PM 42.6370 -75.0670 252° West 434 499 25,600 1,800 Climbing FlightAware
09:59PM 42.6160 -75.1730 255° West 440 506 26,800 1,620 Climbing FlightAware
10:00PM 42.6150 -75.3400 270° West 448 516 28,300 1,500 Climbing FlightAware
10:01PM 42.6050 -75.5100 265° West 438 504 29,900 960 Climbing FlightAware
10:02PM 42.5630 -75.6030 239° Southwest 424 488 30,000 60 Climbing FlightAware
10:02PM 42.5100 -75.6830 228° Southwest 433 498 30,000 60 Level FlightAware
10:03PM 42.4530 -75.7700 228° Southwest 436 502 30,100 1,140 Climbing FlightAware
10:04PM 42.3970 -75.8520 227° Southwest 426 490 31,600 1,980 Climbing FlightAware
10:04PM 42.3530 -75.9190 228° Southwest 424 488 32,700 1,680 Climbing FlightAware
10:05PM 42.2970 -76.0020 228° Southwest 425 489 33,800 1,740 Climbing FlightAware
10:06PM 42.2450 -76.0800 228° Southwest 416 479 35,100 1,980 Climbing FlightAware
10:07PM 42.1890 -76.1640 228° Southwest 407 468 36,600 1,740 Climbing FlightAware
10:07PM 42.1330 -76.2460 227° Southwest 403 464 37,700 1,020 Climbing FlightAware
10:08PM 42.0881 -76.3124 228° Southwest 401 461 38,000 240 Climbing FlightAware ADS-B
10:08PM 42.0496 -76.3693 228° Southwest 399 459 38,000  Level FlightAware ADS-B
10:09PM 41.9930 -76.4521 227° Southwest 401 461 38,000  Level FlightAware ADS-B
10:10PM 41.9545 -76.5097 228° Southwest 406 467 38,000  Level FlightAware ADS-B
10:10PM 41.9033 -76.5841 227° Southwest 407 468 38,000  Level FlightAware ADS-B
10:11PM 41.8643 -76.6401 227° Southwest 408 470 38,000  Level FlightAware ADS-B
10:11PM 41.8256 -76.6980 228° Southwest 410 472 38,000  Level FlightAware ADS-B
10:12PM 41.7837 -76.7579 227° Southwest 412 474 38,000  Level FlightAware ADS-B
10:12PM 41.7430 -76.8178 228° Southwest 412 474 38,000  Level FlightAware ADS-B
10:13PM 41.6994 -76.8796 227° Southwest 413 475 38,000 60 Level FlightAware ADS-B
10:13PM 41.6584 -76.9396 228° Southwest 413 475 38,100 840 Climbing FlightAware ADS-B
10:14PM 41.6173 -76.9989 227° Southwest 406 467 38,900 840 Climbing FlightAware ADS-B
10:15PM 41.5779 -77.0554 227° Southwest 400 460 39,000 60 Climbing FlightAware ADS-B
10:15PM 41.5401 -77.1093 227° Southwest 398 458 39,000  Level FlightAware ADS-B
10:16PM 41.5021 -77.1636 227° Southwest 401 461 39,000  Level FlightAware ADS-B
10:16PM 41.4549 -77.2310 227° Southwest 405 466 39,000  Level FlightAware ADS-B
10:17PM 41.4137 -77.2915 228° Southwest 410 472 39,000  Level FlightAware ADS-B
10:17PM 41.3890 -77.3269 227° Southwest 411 473 39,000  Level FlightAware ADS-B
10:17PM 41.3792 -77.3425 230° Southwest 411 473 39,000  Level FlightAware ADS-B
10:18PM 41.3366 -77.4238 235° Southwest 413 475 39,000  Level FlightAware ADS-B
10:19PM 41.2880 -77.5360 240° Southwest 415 478 39,000  Level FlightAware
10:19PM 41.2480 -77.6240 239° Southwest 417 480 39,000  Level FlightAware
10:20PM 41.2110 -77.7080 240° Southwest 417 480 39,000  Level FlightAware
10:21PM 41.1720 -77.7960 240° Southwest 417 480 39,000  Level FlightAware
10:21PM 41.1240 -77.9060 240° Southwest 416 479 39,000  Level FlightAware
10:22PM 41.0980 -77.9630 239° Southwest 414 476 39,000  Level FlightAware
10:23PM 41.0540 -78.0610 239° Southwest 411 473 39,000  Level FlightAware
10:23PM 41.0150 -78.1470 239° Southwest 409 471 39,000  Level FlightAware
10:24PM 40.9730 -78.2410 239° Southwest 406 467 39,000  Level FlightAware
10:25PM 40.9380 -78.3200 240° Southwest 404 465 39,000  Level FlightAware
10:26PM 40.8820 -78.4420 239° Southwest 401 461 39,000  Level FlightAware
10:26PM 40.8440 -78.5240 239° Southwest 402 463 39,000  Level FlightAware
10:27PM 40.8050 -78.6100 239° Southwest 402 463 39,000  Level FlightAware
10:28PM 40.7660 -78.6960 239° Southwest 402 463 39,000 120 Level FlightAware
10:28PM 40.7260 -78.7850 239° Southwest 404 465 39,200 660 Climbing FlightAware
10:29PM 40.6860 -78.8710 238° Southwest 400 460 39,900 480 Climbing FlightAware
10:30PM 40.6320 -78.9870 239° Southwest 387 445 40,000 60 Climbing FlightAware
10:31PM 40.5960 -79.0660 239° Southwest 388 447 40,000  Level FlightAware
10:31PM 40.5570 -79.1490 238° Southwest 393 452 40,000  Level FlightAware
10:32PM 40.5170 -79.2350 239° Southwest 399 459 40,000  Level FlightAware
10:33PM 40.4750 -79.3250 238° Southwest 402 463 40,000  Level FlightAware
10:33PM 40.4340 -79.4140 239° Southwest 403 464 40,000  Level FlightAware
10:34PM 40.3980 -79.4890 238° Southwest 404 465 40,000  Level FlightAware
10:35PM 40.3560 -79.5770 238° Southwest 406 467 40,000  Level FlightAware
10:35PM 40.3170 -79.6610 239° Southwest 406 467 40,000  Level FlightAware
10:36PM 40.2840 -79.7320 239° Southwest 406 467 40,000  Level FlightAware
10:37PM 40.2420 -79.8200 238° Southwest 405 466 40,000  Level FlightAware
10:37PM 40.1990 -79.9110 238° Southwest 402 463 40,000  Level FlightAware
10:38PM 40.1570 -79.9970 237° Southwest 400 460 40,000  Level FlightAware
10:39PM 40.1170 -80.0830 239° Southwest 396 456 40,000  Level FlightAware
10:39PM 40.0870 -80.1430 237° Southwest 394 453 40,000  Level FlightAware
10:40PM 40.0370 -80.2480 238° Southwest 391 450 40,000  Level FlightAware
10:41PM 40.0030 -80.3180 238° Southwest 390 449 40,000  Level FlightAware
10:41PM 39.9600 -80.4070 238° Southwest 390 449 40,000  Level FlightAware
10:42PM 39.9210 -80.4890 238° Southwest 390 449 40,000  Level FlightAware
10:43PM 39.8860 -80.5600 237° Southwest 390 449 40,000  Level FlightAware
10:43PM 39.8460 -80.6420 238° Southwest 390 449 40,000  Level FlightAware
10:44PM 39.8060 -80.7250 238° Southwest 390 449 40,000  Level FlightAware
10:45PM 39.7690 -80.8000 237° Southwest 391 450 40,000  Level FlightAware
10:46PM 39.7240 -80.8920 238° Southwest 392 451 40,000  Level FlightAware
10:46PM 39.6830 -80.9750 237° Southwest 393 452 40,000  Level FlightAware
10:47PM 39.6400 -81.0630 238° Southwest 393 452 40,000  Level FlightAware
10:48PM 39.6000 -81.1440 237° Southwest 395 455 40,000  Level FlightAware
10:48PM 39.5650 -81.2140 237° Southwest 395 455 40,000  Level FlightAware
10:49PM 39.5250 -81.2940 237° Southwest 395 455 40,000  Level FlightAware
10:50PM 39.4820 -81.3810 237° Southwest 396 456 40,000  Level FlightAware
10:50PM 39.4490 -81.4470 237° Southwest 395 455 40,000  Level FlightAware
10:51PM 39.4060 -81.5320 237° Southwest 395 455 40,000  Level FlightAware
10:52PM 39.3640 -81.6150 237° Southwest 394 453 40,000  Level FlightAware
10:52PM 39.3240 -81.6940 237° Southwest 393 452 40,000  Level FlightAware
10:53PM 39.2800 -81.7820 237° Southwest 392 451 40,000  Level FlightAware
10:54PM 39.2390 -81.8630 237° Southwest 392 451 40,000  Level FlightAware
10:54PM 39.1960 -81.9470 237° Southwest 393 452 40,000  Level FlightAware
10:55PM 39.1520 -82.0330 237° Southwest 393 452 40,000  Level FlightAware
10:56PM 39.1150 -82.1050 236° Southwest 392 451 40,000  Level FlightAware
10:57PM 39.0690 -82.1950 237° Southwest 392 451 40,000  Level FlightAware
10:57PM 39.0270 -82.2790 237° Southwest 392 451 40,000  Level FlightAware
10:58PM 38.9860 -82.3580 236° Southwest 391 450 40,000  Level FlightAware
10:59PM 38.9450 -82.4380 237° Southwest 390 449 40,000  Level FlightAware
10:59PM 38.9070 -82.5110 236° Southwest 391 450 40,000  Level FlightAware
11:00PM 38.8720 -82.5790 237° Southwest 390 449 40,000  Level FlightAware
11:01PM 38.8240 -82.6700 236° Southwest 394 453 40,000  Level FlightAware
11:01PM 38.7920 -82.7340 237° Southwest 401 461 40,000  Level FlightAware
11:02PM 38.7440 -82.8240 236° Southwest 406 467 40,000  Level FlightAware
11:03PM 38.7040 -82.9020 237° Southwest 405 466 40,000  Level FlightAware
11:03PM 38.6600 -82.9850 236° Southwest 405 466 40,000  Level FlightAware
11:04PM 38.6150 -83.0710 236° Southwest 405 466 40,000  Level FlightAware
11:05PM 38.5760 -83.1440 236° Southwest 405 466 40,000  Level FlightAware
11:05PM 38.5350 -83.2220 236° Southwest 407 468 40,000  Level FlightAware
11:06PM 38.4910 -83.3060 236° Southwest 409 471 40,000  Level FlightAware
11:07PM 38.4480 -83.3860 236° Southwest 411 473 40,000  Level FlightAware
11:07PM 38.4150 -83.4490 236° Southwest 411 473 40,000  Level FlightAware
11:08PM 38.3720 -83.5310 236° Southwest 411 473 40,000  Level FlightAware
11:09PM 38.3390 -83.5930 236° Southwest 411 473 40,000  Level FlightAware
11:10PM 38.2950 -83.6770 236° Southwest 411 473 40,000  Level FlightAware
11:10PM 38.2320 -83.7890 234° Southwest 410 472 40,000  Level FlightAware
11:11PM 38.1850 -83.8750 235° Southwest 409 471 40,000  Level FlightAware
11:12PM 38.1390 -83.9590 235° Southwest 409 471 40,000  Level FlightAware
11:12PM 38.1060 -84.0190 235° Southwest 409 471 40,000  Level FlightAware
11:13PM 38.0620 -84.1000 235° Southwest 409 471 40,000  Level FlightAware
11:14PM 37.9830 -84.2470 236° Southwest 404 465 40,000  Level FlightAware
11:15PM 37.9342 -84.3382 236° Southwest 402 463 40,000  Level FlightAware ADS-B
11:15PM 37.9016 -84.3980 235° Southwest 402 463 40,000  Level FlightAware ADS-B
11:16PM 37.8696 -84.4559 235° Southwest 402 463 40,000  Level FlightAware ADS-B
11:16PM 37.8369 -84.5158 235° Southwest 402 463 40,000  Level FlightAware ADS-B
11:17PM 37.8047 -84.5735 235° Southwest 401 461 40,000  Level FlightAware ADS-B
11:17PM 37.7724 -84.6329 235° Southwest 400 460 40,000  Level FlightAware ADS-B
11:18PM 37.7399 -84.6923 235° Southwest 399 459 40,000  Level FlightAware ADS-B
11:18PM 37.7077 -84.7497 235° Southwest 399 459 40,000  Level FlightAware ADS-B
11:19PM 37.6758 -84.8068 235° Southwest 399 459 40,000  Level FlightAware ADS-B
11:19PM 37.6438 -84.8640 235° Southwest 399 459 40,000  Level FlightAware ADS-B
11:20PM 37.6104 -84.9250 235° Southwest 399 459 40,000  Level FlightAware ADS-B
11:20PM 37.5782 -84.9819 234° Southwest 398 458 40,000  Level FlightAware ADS-B
11:21PM 37.5455 -85.0408 235° Southwest 397 457 40,000  Level FlightAware ADS-B
11:21PM 37.5136 -85.0974 235° Southwest 396 456 40,000  Level FlightAware ADS-B
11:22PM 37.4817 -85.1557 235° Southwest 396 456 40,000  Level FlightAware ADS-B
11:22PM 37.4497 -85.2122 235° Southwest 396 456 40,000  Level FlightAware ADS-B
11:23PM 37.4167 -85.2704 234° Southwest 395 455 40,000 60 Level FlightAware ADS-B
11:23PM 37.3835 -85.3304 235° Southwest 395 455 40,100  Climbing FlightAware ADS-B
11:24PM 37.3516 -85.3864 234° Southwest 394 453 40,000 -120 Descending FlightAware ADS-B
11:24PM 37.3132 -85.4535 234° Southwest 393 452 40,000  Level FlightAware ADS-B
11:25PM 37.2810 -85.5110 235° Southwest 391 450 40,000  Level FlightAware ADS-B
11:25PM 37.2495 -85.5662 234° Southwest 389 448 40,000  Level FlightAware ADS-B
11:26PM 37.2193 -85.6193 234° Southwest 387 445 40,000  Level FlightAware ADS-B
11:26PM 37.2092 -85.6351 231° Southwest 384 442 40,000  Level FlightAware ADS-B
11:26PM 37.1879 -85.6613 224° Southwest 378 435 40,000  Level FlightAware ADS-B
11:27PM 37.1643 -85.6809 213° Southwest 373 429 40,000  Level FlightAware ADS-B
11:27PM 37.1220 -85.6960 196° South 372 428 40,000  Level FlightAware
11:28PM 37.0442 -85.6863 174° South 370 426 40,000  Level FlightAware ADS-B
11:28PM 37.0353 -85.6839 168° South 380 437 40,000  Level FlightAware ADS-B
11:28PM 36.9819 -85.6720 170° South 382 440 40,000  Level FlightAware ADS-B
11:29PM 36.9412 -85.6642 171° South 379 436 40,000  Level FlightAware ADS-B
11:29PM 36.9221 -85.6634 178° South 376 433 40,000  Level FlightAware ADS-B
11:30PM 36.8622 -85.6667 183° South 376 433 40,000  Level FlightAware ADS-B
11:30PM 36.8084 -85.6737 186° South 376 433 40,000  Level FlightAware ADS-B
11:30PM 36.7943 -85.6792 197° South 372 428 40,000  Level FlightAware ADS-B
11:30PM 36.7798 -85.6866 202° Southwest 372 428 40,000  Level FlightAware ADS-B
11:31PM 36.7333 -85.7165 207° Southwest 373 429 40,000  Level FlightAware ADS-B
11:31PM 36.6878 -85.7478 209° Southwest 372 428 40,000  Level FlightAware ADS-B
11:32PM 36.6425 -85.7787 209° Southwest 372 428 40,000  Level FlightAware ADS-B
11:32PM 36.5966 -85.8103 209° Southwest 372 428 40,000  Level FlightAware ADS-B
11:33PM 36.5451 -85.8446 208° Southwest 371 427 40,000  Level FlightAware ADS-B
11:33PM 36.5294 -85.8547 207° Southwest 371 427 40,000  Level FlightAware ADS-B
11:33PM 36.5080 -85.8729 214° Southwest 373 429 40,000  Level FlightAware ADS-B
11:34PM 36.4741 -85.9194 228° Southwest 385 443 40,000  Level FlightAware ADS-B
11:34PM 36.4644 -85.9387 238° Southwest 392 451 40,000  Level FlightAware ADS-B
11:34PM 36.4590 -85.9528 245° Southwest 397 457 40,000  Level FlightAware ADS-B
11:35PM 36.4367 -86.0180 247° West 401 461 40,000  Level FlightAware ADS-B
11:35PM 36.4128 -86.0859 246° West 401 461 40,000  Level FlightAware ADS-B
11:36PM 36.3680 -86.2140 247° West 398 458 40,000  Level FlightAware
11:37PM 36.3400 -86.2960 247° West 399 459 40,000  Level FlightAware
11:38PM 36.3060 -86.3910 246° West 401 461 40,000  Level FlightAware
11:38PM 36.2770 -86.4750 247° West 402 463 40,000  Level FlightAware
11:39PM 36.2615 -86.5172 246° West 404 465 40,000  Level FlightAware ADS-B
11:39PM 36.2387 -86.5830 247° West 404 465 40,000  Level FlightAware ADS-B
11:40PM 36.2141 -86.6529 246° West 405 466 40,000  Level FlightAware ADS-B
11:40PM 36.1900 -86.7209 246° West 405 466 40,000 -660 Level FlightAware ADS-B
11:41PM 36.1570 -86.8140 246° West 407 468 39,200 -1,140 Descending FlightAware
11:42PM 36.1273 -86.8954 246° West 405 466 38,500 -1,080 Descending FlightAware ADS-B
11:42PM 36.0900 -87.0010 246° West 413 475 37,700 -1,080 Descending FlightAware
11:43PM 36.0560 -87.0960 246° West 416 479 36,900 -1,320 Descending FlightAware
11:44PM 36.0260 -87.1800 246° West 427 491 35,900 -1,320 Descending FlightAware
11:44PM 35.9940 -87.2670 246° West 431 496 35,200 -660 Descending FlightAware
11:45PM 35.9550 -87.3760 246° West 434 499 35,000 -180 Descending FlightAware
11:46PM 35.9250 -87.4570 245° Southwest 430 495 35,000  Level FlightAware
11:46PM 35.8940 -87.5430 246° West 425 489 35,000 -180 Level FlightAware
11:47PM 35.8610 -87.6330 246° West 418 481 34,800 -540 Descending FlightAware
11:48PM 35.8300 -87.7200 246° West 415 478 34,300 -1,020 Descending FlightAware
11:49PM 35.7970 -87.8090 245° Southwest 421 484 33,500 -720 Descending FlightAware
11:49PM 35.7670 -87.8890 245° Southwest 427 491 33,400 -120 Descending FlightAware
11:50PM 35.7390 -87.9640 245° Southwest 427 491 33,400 420 Level FlightAware
11:51PM 35.6990 -88.0720 246° West 420 483 34,100 480 Climbing FlightAware
11:51PM 35.6730 -88.1380 244° Southwest 420 483 34,100  Level FlightAware
11:52PM 35.6390 -88.2240 244° Southwest 420 483 34,100  Level FlightAware
11:53PM 35.6120 -88.2920 244° Southwest 420 483 34,100  Level FlightAware
11:53PM 35.5860 -88.3570 244° Southwest 420 483 34,100  Level FlightAware
11:54PM 35.5510 -88.4450 244° Southwest 420 483 34,100  Level FlightAware
11:55PM 35.5240 -88.5120 244° Southwest 420 483 34,100  Level FlightAware
11:55PM 35.5000 -88.5740 245° Southwest 420 483 34,100  Level FlightAware
11:56PM 35.4730 -88.6420 244° Southwest 420 483 34,100  Level FlightAware
11:57PM 35.4400 -88.7260 244° Southwest 420 483 34,100  Level FlightAware
11:57PM 35.4040 -88.8150 244° Southwest 420 483 34,100  Level FlightAware
11:58PM 35.3760 -88.8840 244° Southwest 420 483 34,100  Level FlightAware
11:59PM 35.3500 -88.9500 244° Southwest 420 483 34,100  Level FlightAware
11:59PM 35.3170 -89.0330 244° Southwest 420 483 34,100 -14,220 Level FlightAware
12:00AM 35.0897 -89.0044 244° Southwest 329 379 9,700 -12,720 Descending Memphis Center
12:01AM 35.0403 -89.0661 226° Southwest 297 342 9,300 -660 Descending Memphis Center
12:02AM 35.0347 -89.1550 266° West 259 298 8,400 -1,080 Descending Memphis Center
12:03AM 35.0378 -89.2461 272° West 265 305 7,200 -1,140 Descending Memphis Center
12:04AM 35.0428 -89.3350 274° West 265 305 6,200 -960 Descending Memphis Center
12:05AM 35.0456 -89.4111 273° West 246 283 5,300 -600 Descending Memphis Center
12:06AM 35.0461 -89.4897 271° West 238 274 5,000 -660 Descending Memphis Center
12:07AM 35.0486 -89.5708 272° West 233 268 4,000 -960 Descending Memphis Center
12:08AM 35.0511 -89.6494 272° West 233 268 3,100 -540 Descending Memphis Center
12:09AM 35.0536 -89.7281 272° West 233 268 3,000 -240 Descending Memphis Center
12:10AM 35.0542 -89.7964 271° West 220 253 2,700 -540 Descending Memphis Center
12:11AM 35.0564 -89.8600 272° West 200 230 2,000 -900 Descending Memphis Center
12:12AM 35.0586 -89.9156 273° West 180 207 1,000 -840 Descending Memphis Center
12:13AM 35.0589 -89.9564 270° West 159 183 400 -600 Descending Memphis Center
12:16AM 35.0333 -89.9667 270° West  Level FlightAware Approximate
12:23AM 35.0424 -89.9767 270° West  Level Estimated
12:24AM 35.0424 -89.9767 270° West  Level Estimated
12:25AM 35.0424 -89.9767 270° West  Level Estimated
12:26AM 35.0424 -89.9767 270° West  Level Estimated
12:27AM 35.0424 -89.9767 270° West  Level Estimated
12:28AM 35.0424 -89.9767 270° West  Level Estimated